GCRR/ACE METAR and TAF weather

Enter ICAO airport designator
Station Type Date Time Source
GCRR METAR 2021/09/28 05:00 UTC NOAA

GCRR 280500Z 04017KT 8000 FEW020 22/19 Q1019


Station Type Date Time Source
GCRR Decoded METAR 2021/09/28 05:00 UTC NOAA

Lanzarote / Aeropuerto, Spain (GCRR) 28-57N 013-36W 21M
Sep 28, 2021 - 01:00 AM EDT / 2021.09.28 0500 UTC
Wind: from the NE (040 degrees) at 20 MPH (17 KT):0
Visibility: 4 mile(s):0
Sky conditions: mostly clear
Temperature: 71 F (22 C)
Dew Point: 66 F (19 C)
Relative Humidity: 83%
Pressure (altimeter): 30.09 in. Hg (1019 hPa)
ob: GCRR 280500Z 04017KT 8000 FEW020 22/19 Q1019
cycle: 5

Station Type Date Time Source
GCRR TAF 2021/09/28 03:27 UTC NOAA

TAF GCRR 280200Z 2803/2903 02014KT 9999 FEW018 TX29/2814Z TN20/2806Z PROB30
TEMPO 2806/2821 03022G32KT

Example: see airport list